createdAt,value
2022-12-03T00:00:52.668Z,47.68
2022-12-03T00:01:52.655Z,47.98
2022-12-03T00:02:52.783Z,49.75
2022-12-03T00:03:52.752Z,49.69
2022-12-03T00:04:52.981Z,47.61
2022-12-03T00:05:52.643Z,47.64
2022-12-03T00:06:52.654Z,47.47
2022-12-03T00:07:52.735Z,48.26
2022-12-03T00:08:52.611Z,48.07
2022-12-03T00:09:52.643Z,49.37
2022-12-03T00:10:52.624Z,49.25
2022-12-03T00:11:53.600Z,48.38
2022-12-03T00:12:52.742Z,49.82
2022-12-03T00:13:52.619Z,49.12
2022-12-03T00:14:52.674Z,47.75
2022-12-03T00:15:52.711Z,47.16
2022-12-03T00:16:52.593Z,48.64
2022-12-03T00:17:52.581Z,53.37
2022-12-03T00:18:52.590Z,51.00
2022-12-03T00:19:52.555Z,47.72
2022-12-03T00:20:52.553Z,48.54
2022-12-03T00:21:52.550Z,48.33
2022-12-03T00:22:52.546Z,48.19
2022-12-03T00:23:52.548Z,47.29
2022-12-03T00:24:52.749Z,47.18
2022-12-03T00:25:52.695Z,47.31
2022-12-03T00:26:52.519Z,48.43
2022-12-03T00:27:52.509Z,47.45
2022-12-03T00:28:52.518Z,47.33
2022-12-03T00:29:52.520Z,47.39
2022-12-03T00:30:52.546Z,47.14
2022-12-03T00:31:52.508Z,47.15
2022-12-03T00:32:52.511Z,47.28
2022-12-03T00:33:52.462Z,47.55
2022-12-03T00:34:52.746Z,47.71
2022-12-03T00:35:52.456Z,47.54
2022-12-03T00:36:52.477Z,47.53
2022-12-03T00:37:52.454Z,47.38
2022-12-03T00:38:52.473Z,47.47
2022-12-03T00:39:52.443Z,48.88
2022-12-03T00:40:52.433Z,52.18
2022-12-03T00:41:52.458Z,48.12
2022-12-03T00:42:52.426Z,47.25
2022-12-03T00:43:52.420Z,47.28
2022-12-03T00:44:52.718Z,47.45
2022-12-03T00:45:52.443Z,47.67
2022-12-03T00:46:52.483Z,47.87
2022-12-03T00:47:52.394Z,48.76
2022-12-03T00:48:52.384Z,48.91
2022-12-03T00:49:52.387Z,49.35
2022-12-03T00:50:52.376Z,47.44
2022-12-03T00:51:53.407Z,47.36
2022-12-03T00:52:52.362Z,47.16
2022-12-03T00:53:52.352Z,48.09
2022-12-03T00:54:52.578Z,47.41
2022-12-03T00:55:52.343Z,47.62
2022-12-03T00:56:52.366Z,47.83
2022-12-03T00:57:52.331Z,47.12
2022-12-03T00:58:52.382Z,47.18
2022-12-03T00:59:52.323Z,47.42
2022-12-03T01:00:52.323Z,47.38
2022-12-03T01:01:52.384Z,47.44
2022-12-03T01:02:52.337Z,48.93
2022-12-03T01:03:52.296Z,47.44
2022-12-03T01:04:52.675Z,47.33
2022-12-03T01:05:52.306Z,49.97
2022-12-03T01:06:52.311Z,49.09
2022-12-03T01:07:52.348Z,48.58
2022-12-03T01:08:52.299Z,47.81
2022-12-03T01:09:52.308Z,47.46
2022-12-03T01:10:52.266Z,47.37
2022-12-03T01:11:52.248Z,47.26
2022-12-03T01:12:52.304Z,52.75
2022-12-03T01:13:52.266Z,47.49
2022-12-03T01:14:52.573Z,47.36
2022-12-03T01:15:52.232Z,47.36
2022-12-03T01:16:52.223Z,47.29
2022-12-03T01:17:52.245Z,47.33
2022-12-03T01:18:52.205Z,47.64
2022-12-03T01:19:52.223Z,47.35
2022-12-03T01:20:52.203Z,47.24
2022-12-03T01:21:52.195Z,47.20
2022-12-03T01:22:52.223Z,47.24
2022-12-03T01:23:52.173Z,47.21
2022-12-03T01:24:52.434Z,47.54
2022-12-03T01:25:52.188Z,47.72
2022-12-03T01:26:52.164Z,47.36
2022-12-03T01:27:52.172Z,47.30
2022-12-03T01:28:52.141Z,47.25
2022-12-03T01:29:52.167Z,47.86
2022-12-03T01:30:52.204Z,47.44
2022-12-03T01:31:52.132Z,47.78
2022-12-03T01:32:52.150Z,47.35
2022-12-03T01:33:52.148Z,47.39
2022-12-03T01:34:52.675Z,47.32
2022-12-03T01:35:52.102Z,47.44
2022-12-03T01:36:52.102Z,47.95
2022-12-03T01:37:52.097Z,47.49
2022-12-03T01:38:52.136Z,47.33
2022-12-03T01:39:52.148Z,47.44
2022-12-03T01:40:52.077Z,47.21
2022-12-03T01:41:52.085Z,47.28
2022-12-03T01:42:52.065Z,47.28
2022-12-03T01:43:52.070Z,47.47
2022-12-03T01:44:52.401Z,47.23
2022-12-03T01:45:52.057Z,47.27
2022-12-03T01:46:52.256Z,47.34
2022-12-03T01:47:52.025Z,47.47
2022-12-03T01:48:52.037Z,47.46
2022-12-03T01:49:52.074Z,49.42
2022-12-03T01:50:52.017Z,47.44
2022-12-03T01:51:51.994Z,47.61
2022-12-03T01:52:51.981Z,47.50
2022-12-03T01:53:52.004Z,47.41
2022-12-03T01:54:52.195Z,47.54
2022-12-03T01:55:51.969Z,48.28
2022-12-03T01:56:51.962Z,47.04
2022-12-03T01:57:51.965Z,47.55
2022-12-03T01:58:51.983Z,47.91
2022-12-03T01:59:51.969Z,49.56
2022-12-03T02:00:51.984Z,49.12
2022-12-03T02:01:52.012Z,48.11
2022-12-03T02:02:51.933Z,47.54
2022-12-03T02:03:52.036Z,47.50
2022-12-03T02:04:52.237Z,47.58
2022-12-03T02:05:51.957Z,47.67
2022-12-03T02:06:51.905Z,47.46
2022-12-03T02:07:51.950Z,47.47
2022-12-03T02:08:51.889Z,47.50
2022-12-03T02:09:51.904Z,47.51
2022-12-03T02:10:52.127Z,48.82
2022-12-03T02:11:51.886Z,48.31
2022-12-03T02:12:51.869Z,49.62
2022-12-03T02:13:51.890Z,52.64
2022-12-03T02:14:52.156Z,46.94
2022-12-03T02:15:51.897Z,47.04
2022-12-03T02:16:51.865Z,47.26
2022-12-03T02:17:51.829Z,47.45
2022-12-03T02:18:52.834Z,47.35
2022-12-03T02:19:51.820Z,47.36
2022-12-03T02:20:51.816Z,47.39
2022-12-03T02:21:51.864Z,47.73
2022-12-03T02:22:51.808Z,47.20
2022-12-03T02:23:51.786Z,47.50
2022-12-03T02:24:51.960Z,47.40
2022-12-03T02:25:51.805Z,47.40
2022-12-03T02:26:51.812Z,47.76
2022-12-03T02:27:51.777Z,47.69
2022-12-03T02:28:51.773Z,49.24
2022-12-03T02:29:51.758Z,48.32
2022-12-03T02:30:51.790Z,51.00
2022-12-03T02:31:51.808Z,50.47
2022-12-03T02:32:51.748Z,51.27
2022-12-03T02:33:51.734Z,48.16
2022-12-03T02:34:52.148Z,47.59
2022-12-03T02:35:51.764Z,48.22
2022-12-03T02:36:51.723Z,53.00
2022-12-03T02:37:51.711Z,47.52
2022-12-03T02:38:51.704Z,47.37
2022-12-03T02:39:51.768Z,48.03
2022-12-03T02:40:51.751Z,47.31
2022-12-03T02:41:51.698Z,47.31
2022-12-03T02:42:51.685Z,49.28
2022-12-03T02:43:51.699Z,52.08
2022-12-03T02:44:52.058Z,47.34
2022-12-03T02:45:51.714Z,47.26
2022-12-03T02:46:51.719Z,47.30
2022-12-03T02:47:51.650Z,47.40
2022-12-03T02:48:51.691Z,49.08
2022-12-03T02:49:51.666Z,48.93
2022-12-03T02:50:51.635Z,49.76
2022-12-03T02:51:51.675Z,48.86
2022-12-03T02:52:51.630Z,49.45
2022-12-03T02:53:51.629Z,47.61
2022-12-03T02:54:52.023Z,47.42
2022-12-03T02:55:51.623Z,47.41
2022-12-03T02:56:51.653Z,47.96
2022-12-03T02:57:51.606Z,50.23
2022-12-03T02:58:51.583Z,47.51
2022-12-03T02:59:51.579Z,47.39
2022-12-03T03:00:51.612Z,47.34
2022-12-03T03:01:51.677Z,47.62
2022-12-03T03:02:51.571Z,47.58
2022-12-03T03:03:51.582Z,47.94
2022-12-03T03:04:51.918Z,50.20
2022-12-03T03:05:51.564Z,48.94
2022-12-03T03:06:51.567Z,48.08
2022-12-03T03:07:51.614Z,48.57
2022-12-03T03:08:51.542Z,48.00
2022-12-03T03:09:51.539Z,47.50
2022-12-03T03:10:51.534Z,47.42
2022-12-03T03:11:51.550Z,49.34
2022-12-03T03:12:51.501Z,47.41
2022-12-03T03:13:51.560Z,47.39
2022-12-03T03:14:51.803Z,47.43
2022-12-03T03:15:51.492Z,48.90
2022-12-03T03:16:51.549Z,48.33
2022-12-03T03:17:51.472Z,47.68
2022-12-03T03:18:51.495Z,47.41
2022-12-03T03:19:51.510Z,47.25
2022-12-03T03:20:51.485Z,47.24
2022-12-03T03:21:51.472Z,47.28
2022-12-03T03:22:51.451Z,47.26
2022-12-03T03:23:51.457Z,47.31
2022-12-03T03:24:51.795Z,47.21
2022-12-03T03:25:51.443Z,47.30
2022-12-03T03:26:51.443Z,47.30
2022-12-03T03:27:51.434Z,47.37
2022-12-03T03:28:51.429Z,52.18
2022-12-03T03:29:51.414Z,48.51
2022-12-03T03:30:51.391Z,47.78
2022-12-03T03:31:51.495Z,47.47
2022-12-03T03:32:51.429Z,47.70
2022-12-03T03:33:51.379Z,49.19
2022-12-03T03:34:51.696Z,47.52
2022-12-03T03:35:51.392Z,47.46
2022-12-03T03:36:51.379Z,48.36
2022-12-03T03:37:51.354Z,48.14
2022-12-03T03:38:51.345Z,47.69
2022-12-03T03:39:51.358Z,50.87
2022-12-03T03:40:51.337Z,47.82
2022-12-03T03:41:51.361Z,47.66
2022-12-03T03:42:51.389Z,47.91
2022-12-03T03:43:51.350Z,48.54
2022-12-03T03:44:51.694Z,47.48
2022-12-03T03:45:51.354Z,47.56
2022-12-03T03:46:51.331Z,48.77
2022-12-03T03:47:51.296Z,48.51
2022-12-03T03:48:51.315Z,47.32
2022-12-03T03:49:51.309Z,47.32
2022-12-03T03:50:51.279Z,47.56
2022-12-03T03:51:51.277Z,48.21
2022-12-03T03:52:51.297Z,51.27
2022-12-03T03:53:51.281Z,47.93
2022-12-03T03:54:51.423Z,47.69
2022-12-03T03:55:51.251Z,47.60
2022-12-03T03:56:51.289Z,47.51
2022-12-03T03:57:51.256Z,48.40
2022-12-03T03:58:51.252Z,47.83
2022-12-03T03:59:51.256Z,49.25
2022-12-03T04:00:51.263Z,47.65
2022-12-03T04:01:51.231Z,47.96
2022-12-03T04:02:51.236Z,49.39
2022-12-03T04:03:51.275Z,48.11
2022-12-03T04:04:51.467Z,48.96
2022-12-03T04:05:51.212Z,51.00
2022-12-03T04:06:51.206Z,47.78
2022-12-03T04:07:51.229Z,47.58
2022-12-03T04:08:51.212Z,47.37
2022-12-03T04:09:51.172Z,47.56
2022-12-03T04:10:51.224Z,47.37
2022-12-03T04:11:51.171Z,47.43
2022-12-03T04:12:51.154Z,48.60
2022-12-03T04:13:51.144Z,51.32
2022-12-03T04:14:51.430Z,48.35
2022-12-03T04:15:51.147Z,49.62
2022-12-03T04:16:51.158Z,47.82
2022-12-03T04:17:51.151Z,48.15
2022-12-03T04:18:51.140Z,48.61
2022-12-03T04:19:51.164Z,49.64
2022-12-03T04:20:51.109Z,50.62
2022-12-03T04:21:51.110Z,47.93
2022-12-03T04:22:51.121Z,47.66
2022-12-03T04:23:51.090Z,47.64
2022-12-03T04:24:51.462Z,49.62
2022-12-03T04:25:51.095Z,50.17
2022-12-03T04:26:51.097Z,47.75
2022-12-03T04:27:51.098Z,48.62
2022-12-03T04:28:51.068Z,47.77
2022-12-03T04:29:51.074Z,48.46
2022-12-03T04:30:51.135Z,47.99
2022-12-03T04:31:51.062Z,47.80
2022-12-03T04:32:51.058Z,48.49
2022-12-03T04:33:51.059Z,50.89
2022-12-03T04:34:51.276Z,48.45
2022-12-03T04:35:51.050Z,49.47
2022-12-03T04:36:51.026Z,47.74
2022-12-03T04:37:51.014Z,47.53
2022-12-03T04:38:51.043Z,49.06
2022-12-03T04:39:51.027Z,47.52
2022-12-03T04:40:50.998Z,47.59
2022-12-03T04:41:50.992Z,47.47
2022-12-03T04:42:51.007Z,50.08
2022-12-03T04:43:50.999Z,49.32
2022-12-03T04:44:51.163Z,47.76
2022-12-03T04:45:51.041Z,47.71
2022-12-03T04:46:50.967Z,50.08
2022-12-03T04:47:51.075Z,47.82
2022-12-03T04:48:50.949Z,47.39
2022-12-03T04:49:50.965Z,47.56
2022-12-03T04:50:50.927Z,48.03
2022-12-03T04:51:50.923Z,49.90
2022-12-03T04:52:50.954Z,49.06
2022-12-03T04:53:50.962Z,48.58
2022-12-03T04:54:51.036Z,47.81
2022-12-03T04:55:50.913Z,48.11
2022-12-03T04:56:50.905Z,51.22
2022-12-03T04:57:50.898Z,47.98
2022-12-03T04:58:50.890Z,49.43
2022-12-03T04:59:50.931Z,49.84
2022-12-03T05:00:50.963Z,51.07
2022-12-03T05:01:50.959Z,48.86
2022-12-03T05:02:50.971Z,47.56
2022-12-03T05:03:50.883Z,48.28
2022-12-03T05:04:51.221Z,49.22
2022-12-03T05:05:50.876Z,48.94
2022-12-03T05:06:50.838Z,47.98
2022-12-03T05:07:51.907Z,47.79
2022-12-03T05:08:50.906Z,48.55
2022-12-03T05:09:50.898Z,49.10
2022-12-03T05:10:50.872Z,47.89
2022-12-03T05:11:50.853Z,48.20
2022-12-03T05:12:50.829Z,51.59
2022-12-03T05:13:50.808Z,49.23
2022-12-03T05:14:50.920Z,48.18
2022-12-03T05:15:50.803Z,50.38
2022-12-03T05:16:50.927Z,50.67
2022-12-03T05:17:50.804Z,48.38
2022-12-03T05:18:50.779Z,48.44
2022-12-03T05:19:50.773Z,47.51
2022-12-03T05:20:53.458Z,47.47
2022-12-03T05:21:51.811Z,47.56
2022-12-03T05:22:50.793Z,47.81
2022-12-03T05:23:50.746Z,47.88
2022-12-03T05:24:50.989Z,47.74
2022-12-03T05:25:50.747Z,47.72
2022-12-03T05:26:50.730Z,49.26
2022-12-03T05:27:50.849Z,47.54
2022-12-03T05:28:50.723Z,48.25
2022-12-03T05:29:50.725Z,47.62
2022-12-03T05:30:50.760Z,48.21
2022-12-03T05:31:50.707Z,49.84
2022-12-03T05:32:50.747Z,48.58
2022-12-03T05:33:50.689Z,48.09
2022-12-03T05:34:50.991Z,51.49
2022-12-03T05:35:50.733Z,50.37
2022-12-03T05:36:50.681Z,47.80
2022-12-03T05:37:50.698Z,48.70
2022-12-03T05:38:50.683Z,50.17
2022-12-03T05:39:50.726Z,47.32
2022-12-03T05:40:50.662Z,47.75
2022-12-03T05:41:50.652Z,51.03
2022-12-03T05:42:50.681Z,51.12
2022-12-03T05:43:50.658Z,50.11
2022-12-03T05:44:51.905Z,50.14
2022-12-03T05:45:50.665Z,50.08
2022-12-03T05:46:50.614Z,50.14
2022-12-03T05:47:50.610Z,50.18
2022-12-03T05:48:50.665Z,48.70
2022-12-03T05:49:50.587Z,47.85
2022-12-03T05:50:50.603Z,47.50
2022-12-03T05:51:55.113Z,47.77
2022-12-03T05:52:52.609Z,49.40
2022-12-03T05:53:50.594Z,50.43
2022-12-03T05:54:50.661Z,47.90
2022-12-03T05:55:50.587Z,48.14
2022-12-03T05:56:50.563Z,48.13
2022-12-03T05:57:50.563Z,48.84
2022-12-03T05:58:50.554Z,51.51
2022-12-03T05:59:50.538Z,49.91
2022-12-03T06:00:50.580Z,49.88
2022-12-03T06:01:50.532Z,49.38
2022-12-03T06:02:50.598Z,50.89
2022-12-03T06:03:50.667Z,49.77
2022-12-03T06:04:50.720Z,47.95
2022-12-03T06:05:50.567Z,50.08
2022-12-03T06:06:51.502Z,49.79
2022-12-03T06:07:50.550Z,48.01
2022-12-03T06:08:50.498Z,48.61
2022-12-03T06:09:50.496Z,49.34
2022-12-03T06:10:50.495Z,48.74
2022-12-03T06:11:50.473Z,48.50
2022-12-03T06:12:50.467Z,48.04
2022-12-03T06:13:50.468Z,48.05
2022-12-03T06:14:50.531Z,48.76
2022-12-03T06:15:50.554Z,49.50
2022-12-03T06:16:51.433Z,49.35
2022-12-03T06:17:50.432Z,51.36
2022-12-03T06:18:50.426Z,48.09
2022-12-03T06:19:50.418Z,49.94
2022-12-03T06:20:50.580Z,49.42
2022-12-03T06:21:50.421Z,52.04
2022-12-03T06:22:50.433Z,49.01
2022-12-03T06:23:50.406Z,48.18
2022-12-03T06:24:50.537Z,49.29
2022-12-03T06:25:50.400Z,49.09
2022-12-03T06:26:50.383Z,51.40
2022-12-03T06:27:50.412Z,53.38
2022-12-03T06:28:50.395Z,51.14
2022-12-03T06:29:50.362Z,49.10
2022-12-03T06:30:50.511Z,49.20
2022-12-03T06:31:50.367Z,48.38
2022-12-03T06:32:50.390Z,50.63
2022-12-03T06:33:50.336Z,48.92
2022-12-03T06:34:50.369Z,51.15
2022-12-03T06:35:50.344Z,50.69
2022-12-03T06:36:50.315Z,48.34
2022-12-03T06:37:50.373Z,49.77
2022-12-03T06:38:50.327Z,48.82
2022-12-03T06:39:50.312Z,51.80
2022-12-03T06:40:50.372Z,50.58
2022-12-03T06:41:50.334Z,49.22
2022-12-03T06:42:50.301Z,50.16
2022-12-03T06:43:50.293Z,49.35
2022-12-03T06:44:50.313Z,49.12
2022-12-03T06:45:50.281Z,50.66
2022-12-03T06:46:50.340Z,50.91
2022-12-03T06:47:50.272Z,49.77
2022-12-03T06:48:50.322Z,50.40
2022-12-03T06:49:50.235Z,49.36
2022-12-03T06:50:50.283Z,52.46
2022-12-03T06:51:50.231Z,48.87
2022-12-03T06:52:50.229Z,49.14
2022-12-03T06:53:50.251Z,48.53
2022-12-03T06:54:50.266Z,49.72
2022-12-03T06:55:50.220Z,49.21
2022-12-03T06:56:50.197Z,48.92
2022-12-03T06:57:50.218Z,48.48
2022-12-03T06:58:50.226Z,48.74
2022-12-03T06:59:50.200Z,48.96
2022-12-03T07:00:50.212Z,51.78
2022-12-03T07:01:50.247Z,57.02
2022-12-03T07:02:50.215Z,59.10
2022-12-03T07:03:50.183Z,59.35
2022-12-03T07:04:50.198Z,51.92
2022-12-03T07:05:50.157Z,48.15
2022-12-03T07:06:50.194Z,49.02
2022-12-03T07:07:50.208Z,50.89
2022-12-03T07:08:50.132Z,50.95
2022-12-03T07:09:50.158Z,49.66
2022-12-03T07:10:51.129Z,49.51
2022-12-03T07:11:50.128Z,49.85
2022-12-03T07:12:50.123Z,49.02
2022-12-03T07:13:50.095Z,50.64
2022-12-03T07:14:50.114Z,50.82
2022-12-03T07:15:50.118Z,51.07
2022-12-03T07:16:50.096Z,51.52
2022-12-03T07:17:51.109Z,49.59
2022-12-03T07:18:51.113Z,49.54
2022-12-03T07:19:50.070Z,47.96
2022-12-03T07:20:50.067Z,48.23
2022-12-03T07:21:50.054Z,48.63
2022-12-03T07:22:50.105Z,48.84
2022-12-03T07:23:50.041Z,49.12
2022-12-03T07:24:50.061Z,48.39
2022-12-03T07:25:50.044Z,50.12
2022-12-03T07:26:50.061Z,50.88
2022-12-03T07:27:50.033Z,49.31
2022-12-03T07:28:50.024Z,48.03
2022-12-03T07:29:50.007Z,48.38
2022-12-03T07:30:50.000Z,52.23
2022-12-03T07:31:50.048Z,49.74
2022-12-03T07:32:50.008Z,48.92
2022-12-03T07:33:50.007Z,49.58
2022-12-03T07:34:49.969Z,52.98
2022-12-03T07:35:49.978Z,50.67
2022-12-03T07:36:50.112Z,50.44
2022-12-03T07:37:49.972Z,50.73
2022-12-03T07:38:49.997Z,48.22
2022-12-03T07:39:49.960Z,49.33
2022-12-03T07:40:49.950Z,50.74
2022-12-03T07:41:49.949Z,49.84
2022-12-03T07:42:49.978Z,49.40
2022-12-03T07:43:49.921Z,49.79
2022-12-03T07:44:49.953Z,49.04
2022-12-03T07:45:49.918Z,50.00
2022-12-03T07:46:49.971Z,50.27
2022-12-03T07:47:49.915Z,52.69
2022-12-03T07:48:49.928Z,50.67
2022-12-03T07:49:49.953Z,50.15
2022-12-03T07:50:49.920Z,49.39
2022-12-03T07:51:49.896Z,49.26
2022-12-03T07:52:49.880Z,52.48
2022-12-03T07:53:49.879Z,51.23
2022-12-03T07:54:49.893Z,50.84
2022-12-03T07:55:49.909Z,52.67
2022-12-03T07:56:49.883Z,53.58
2022-12-03T07:57:49.849Z,53.00
2022-12-03T07:58:49.834Z,51.57
2022-12-03T07:59:49.835Z,52.43
2022-12-03T08:00:49.936Z,54.08
2022-12-03T08:01:49.899Z,50.87
2022-12-03T08:02:50.184Z,51.21
2022-12-03T08:03:49.823Z,47.67
2022-12-03T08:04:49.823Z,50.75
2022-12-03T08:05:49.842Z,52.16
2022-12-03T08:06:49.841Z,52.80
2022-12-03T08:07:49.879Z,52.45
2022-12-03T08:08:49.777Z,54.05
2022-12-03T08:09:49.766Z,50.76
2022-12-03T08:10:49.795Z,49.51
2022-12-03T08:11:49.806Z,50.81
2022-12-03T08:12:49.800Z,52.08
2022-12-03T08:13:49.770Z,50.52
2022-12-03T08:14:49.765Z,51.57
2022-12-03T08:15:49.736Z,51.79
2022-12-03T08:16:49.812Z,51.94
2022-12-03T08:17:49.764Z,52.10
2022-12-03T08:18:49.716Z,52.77
2022-12-03T08:19:49.706Z,49.29
2022-12-03T08:20:49.707Z,51.81
2022-12-03T08:21:49.715Z,54.16
2022-12-03T08:22:49.822Z,53.83
2022-12-03T08:23:49.696Z,51.75
2022-12-03T08:24:49.697Z,51.28
2022-12-03T08:25:49.818Z,51.74
2022-12-03T08:26:49.689Z,51.84
2022-12-03T08:27:49.669Z,53.73
2022-12-03T08:28:49.693Z,55.07
2022-12-03T08:29:49.696Z,55.97
2022-12-03T08:30:49.665Z,54.51
2022-12-03T08:31:49.699Z,54.90
2022-12-03T08:32:49.677Z,53.19
2022-12-03T08:33:49.681Z,50.85
2022-12-03T08:34:49.642Z,52.81
2022-12-03T08:35:49.610Z,55.33
2022-12-03T08:36:49.623Z,53.51
2022-12-03T08:37:49.607Z,52.49
2022-12-03T08:38:50.709Z,51.77
2022-12-03T08:39:49.591Z,52.28
2022-12-03T08:40:49.640Z,54.47
2022-12-03T08:41:49.585Z,52.93
2022-12-03T08:42:49.583Z,53.52
2022-12-03T08:43:49.565Z,53.92
2022-12-03T08:44:49.553Z,54.21
2022-12-03T08:45:49.742Z,52.44
2022-12-03T08:46:49.583Z,51.37
2022-12-03T08:47:49.540Z,52.14
2022-12-03T08:48:49.791Z,52.47
2022-12-03T08:49:49.614Z,51.78
2022-12-03T08:50:49.552Z,53.28
2022-12-03T08:51:49.548Z,52.47
2022-12-03T08:52:49.531Z,50.76
2022-12-03T08:53:49.518Z,54.37
2022-12-03T08:54:49.527Z,54.38
2022-12-03T08:55:49.508Z,52.15
2022-12-03T08:56:49.550Z,52.20
2022-12-03T08:57:49.481Z,53.85
2022-12-03T08:58:49.519Z,50.10
2022-12-03T08:59:49.478Z,52.63
2022-12-03T09:00:49.517Z,53.67
2022-12-03T09:01:49.509Z,52.64
2022-12-03T09:02:49.468Z,53.11
2022-12-03T09:03:49.554Z,53.83
2022-12-03T09:04:49.460Z,49.50
2022-12-03T09:05:49.449Z,54.35
2022-12-03T09:06:49.494Z,54.94
2022-12-03T09:07:49.512Z,52.56
2022-12-03T09:08:49.436Z,49.63
2022-12-03T09:09:49.525Z,50.56
2022-12-03T09:10:49.417Z,53.90
2022-12-03T09:11:49.457Z,51.70
2022-12-03T09:12:49.404Z,51.82
2022-12-03T09:13:49.391Z,53.33
2022-12-03T09:14:49.482Z,53.06
2022-12-03T09:15:49.436Z,51.01
2022-12-03T09:16:49.463Z,50.97
2022-12-03T09:17:49.428Z,52.03
2022-12-03T09:18:49.371Z,50.97
2022-12-03T09:19:49.375Z,49.70
2022-12-03T09:20:49.471Z,50.20
2022-12-03T09:21:49.338Z,52.25
2022-12-03T09:22:49.434Z,49.31
2022-12-03T09:23:49.323Z,51.88
2022-12-03T09:24:49.356Z,51.83
2022-12-03T09:25:49.320Z,53.32
2022-12-03T09:26:49.348Z,52.70
2022-12-03T09:27:49.352Z,51.07
2022-12-03T09:28:49.313Z,51.56
2022-12-03T09:29:49.323Z,49.47
2022-12-03T09:30:49.305Z,55.53
2022-12-03T09:31:49.356Z,52.17
2022-12-03T09:32:49.347Z,49.46
2022-12-03T09:33:49.310Z,50.65
2022-12-03T09:34:49.295Z,51.09
2022-12-03T09:35:49.257Z,52.75
2022-12-03T09:36:49.248Z,50.93
2022-12-03T09:37:49.276Z,52.33
2022-12-03T09:38:49.247Z,54.22
2022-12-03T09:39:49.383Z,56.54
2022-12-03T09:40:49.235Z,52.87
2022-12-03T09:41:49.279Z,53.07
2022-12-03T09:42:49.201Z,53.40
2022-12-03T09:44:03.821Z,50.54
2022-12-03T09:44:51.593Z,51.05
2022-12-03T09:45:49.340Z,50.85
2022-12-03T09:46:49.213Z,50.01
2022-12-03T09:47:49.200Z,53.24
2022-12-03T09:48:49.212Z,51.49
2022-12-03T09:49:49.223Z,51.81
2022-12-03T09:50:49.191Z,51.64
2022-12-03T09:51:49.268Z,51.56
2022-12-03T09:52:49.161Z,51.09
2022-12-03T09:53:49.185Z,51.88
2022-12-03T09:54:49.149Z,52.56
2022-12-03T09:55:49.152Z,51.54
2022-12-03T09:56:49.225Z,51.45
2022-12-03T09:57:49.160Z,50.15
2022-12-03T09:58:49.113Z,50.82
2022-12-03T09:59:49.144Z,50.33
2022-12-03T10:00:49.142Z,52.78
2022-12-03T10:01:49.247Z,57.39
2022-12-03T10:02:49.115Z,60.15
2022-12-03T10:03:49.111Z,61.21
2022-12-03T10:04:49.205Z,52.48
2022-12-03T10:05:49.116Z,49.25
2022-12-03T10:06:49.091Z,52.73
2022-12-03T10:07:49.173Z,51.53
2022-12-03T10:08:49.054Z,53.85
2022-12-03T10:09:49.050Z,49.30
2022-12-03T10:10:50.069Z,52.74
2022-12-03T10:11:49.048Z,52.77
2022-12-03T10:12:49.065Z,53.62
2022-12-03T10:13:49.040Z,49.30
2022-12-03T10:14:49.047Z,49.00
2022-12-03T10:15:49.062Z,51.79
2022-12-03T10:16:49.093Z,51.77
2022-12-03T10:17:49.032Z,49.52
2022-12-03T10:18:49.117Z,51.84
2022-12-03T10:19:49.024Z,52.82
2022-12-03T10:20:49.009Z,51.32
2022-12-03T10:21:49.035Z,50.13
2022-12-03T10:22:48.987Z,48.80
2022-12-03T10:23:54.902Z,52.18
2022-12-03T10:24:50.090Z,49.17
2022-12-03T10:25:48.967Z,50.42
2022-12-03T10:26:49.048Z,50.50
2022-12-03T10:27:48.992Z,52.47
2022-12-03T10:28:48.973Z,51.10
2022-12-03T10:29:48.927Z,50.20
2022-12-03T10:30:48.964Z,51.48
2022-12-03T10:31:49.171Z,50.63
2022-12-03T10:32:48.979Z,50.35
2022-12-03T10:33:48.928Z,52.57
2022-12-03T10:34:48.909Z,50.05
2022-12-03T10:35:48.932Z,53.51
2022-12-03T10:36:48.921Z,52.23
2022-12-03T10:37:48.931Z,50.88
2022-12-03T10:38:48.884Z,50.46
2022-12-03T10:39:52.464Z,50.40
2022-12-03T10:40:50.946Z,53.15
2022-12-03T10:41:48.879Z,51.15
2022-12-03T10:42:48.903Z,52.49
2022-12-03T10:43:48.881Z,52.54
2022-12-03T10:44:48.867Z,54.23
2022-12-03T10:45:48.891Z,51.95
2022-12-03T10:46:48.985Z,52.80
2022-12-03T10:47:48.935Z,53.68
2022-12-03T10:48:48.832Z,55.33
2022-12-03T10:49:48.818Z,53.05
2022-12-03T10:50:48.826Z,54.56
2022-12-03T10:51:48.814Z,51.76
2022-12-03T10:52:48.865Z,52.01
2022-12-03T10:53:48.809Z,53.78
2022-12-03T10:54:48.840Z,51.97
2022-12-03T10:55:48.825Z,48.40
2022-12-03T10:56:48.816Z,51.61
2022-12-03T10:57:48.815Z,49.89
2022-12-03T10:58:48.798Z,51.41
2022-12-03T10:59:48.799Z,51.34
2022-12-03T11:00:48.796Z,54.49
2022-12-03T11:01:48.813Z,52.16
2022-12-03T11:02:56.104Z,51.86
2022-12-03T11:03:50.842Z,53.35
2022-12-03T11:04:48.766Z,52.91
2022-12-03T11:05:48.755Z,52.67
2022-12-03T11:06:48.770Z,54.26
2022-12-03T11:07:48.772Z,51.31
2022-12-03T11:08:54.630Z,54.68
2022-12-03T11:09:50.949Z,53.02
2022-12-03T11:10:48.743Z,50.32
2022-12-03T11:11:49.792Z,52.74
2022-12-03T11:12:48.705Z,51.22
2022-12-03T11:13:48.702Z,49.85
2022-12-03T11:14:48.695Z,50.32
2022-12-03T11:15:48.816Z,51.50
2022-12-03T11:16:48.684Z,50.51
2022-12-03T11:17:48.712Z,52.04
2022-12-03T11:18:48.717Z,51.02
2022-12-03T11:19:48.692Z,51.59
2022-12-03T11:20:48.824Z,53.20
2022-12-03T11:21:48.661Z,52.41
2022-12-03T11:22:48.643Z,51.95
2022-12-03T11:23:48.641Z,49.99
2022-12-03T11:24:48.749Z,50.02
2022-12-03T11:25:48.673Z,52.58
2022-12-03T11:26:48.714Z,51.04
2022-12-03T11:27:48.597Z,50.63
2022-12-03T11:28:49.650Z,51.53
2022-12-03T11:29:48.653Z,50.21
2022-12-03T11:30:48.691Z,51.51
2022-12-03T11:31:48.691Z,52.19
2022-12-03T11:32:48.600Z,53.48
2022-12-03T11:33:48.594Z,50.24
2022-12-03T11:34:48.639Z,53.75
2022-12-03T11:35:48.639Z,48.65
2022-12-03T11:37:01.489Z,50.27
2022-12-03T11:37:50.568Z,49.44
2022-12-03T11:38:52.867Z,52.12
2022-12-03T11:39:50.649Z,55.84
2022-12-03T11:40:48.543Z,51.70
2022-12-03T11:41:48.594Z,53.02
2022-12-03T11:42:48.557Z,52.90
2022-12-03T11:43:48.540Z,49.52
2022-12-03T11:44:48.506Z,50.67
2022-12-03T11:45:48.499Z,50.91
2022-12-03T11:46:48.595Z,50.79
2022-12-03T11:47:48.527Z,51.62
2022-12-03T11:48:48.485Z,51.23
2022-12-03T11:49:48.469Z,49.65
2022-12-03T11:50:48.613Z,49.31
2022-12-03T11:51:48.521Z,50.87
2022-12-03T11:52:48.517Z,53.41
2022-12-03T11:53:48.490Z,51.70
2022-12-03T11:54:48.460Z,52.06
2022-12-03T11:55:48.494Z,51.47
2022-12-03T11:56:48.562Z,51.79
2022-12-03T11:57:48.451Z,53.37
2022-12-03T11:58:48.458Z,54.68
2022-12-03T11:59:48.414Z,52.78
2022-12-03T12:00:48.540Z,53.34
2022-12-03T12:01:48.408Z,54.07
2022-12-03T12:02:48.466Z,51.99
2022-12-03T12:03:48.565Z,49.76
2022-12-03T12:04:48.396Z,51.88
2022-12-03T12:05:48.375Z,52.45
2022-12-03T12:06:53.143Z,49.74
2022-12-03T12:07:50.573Z,52.64
2022-12-03T12:08:48.375Z,49.26
2022-12-03T12:09:48.368Z,50.02
2022-12-03T12:10:48.333Z,54.83
2022-12-03T12:11:48.358Z,50.88
2022-12-03T12:12:54.684Z,52.52
2022-12-03T12:13:50.357Z,52.54
2022-12-03T12:14:48.371Z,52.27
2022-12-03T12:15:48.359Z,52.83
2022-12-03T12:16:48.483Z,50.87
2022-12-03T12:17:48.343Z,51.62
2022-12-03T12:18:51.150Z,50.89
2022-12-03T12:19:54.371Z,52.92
2022-12-03T12:20:49.342Z,54.61
2022-12-03T12:21:48.337Z,53.11
2022-12-03T12:22:48.296Z,52.21
2022-12-03T12:23:48.264Z,52.60
2022-12-03T12:24:48.299Z,48.92
2022-12-03T12:25:53.796Z,53.37
2022-12-03T12:26:50.291Z,49.37
2022-12-03T12:27:48.290Z,52.07
2022-12-03T12:28:48.230Z,54.49
2022-12-03T12:29:48.281Z,50.50
2022-12-03T12:30:48.274Z,54.68
2022-12-03T12:31:53.514Z,50.67
2022-12-03T12:32:50.325Z,51.85
2022-12-03T12:33:48.215Z,52.49
2022-12-03T12:34:48.194Z,54.15
2022-12-03T12:35:48.233Z,50.93
2022-12-03T12:36:48.275Z,49.58
2022-12-03T12:37:52.237Z,51.50
2022-12-03T12:38:49.182Z,51.20
2022-12-03T12:39:48.220Z,51.56
2022-12-03T12:40:48.212Z,50.46
2022-12-03T12:41:48.201Z,52.62
2022-12-03T12:42:48.203Z,51.69
2022-12-03T12:43:48.167Z,50.74
2022-12-03T12:44:48.171Z,51.63
2022-12-03T12:45:48.176Z,51.58
2022-12-03T12:46:48.866Z,50.66
2022-12-03T12:47:49.289Z,51.77
2022-12-03T12:48:48.131Z,51.05
2022-12-03T12:49:51.744Z,52.24
2022-12-03T12:50:49.117Z,51.34
2022-12-03T12:51:48.127Z,53.33
2022-12-03T12:52:48.150Z,51.36